createdAt,value
2023-03-03T00:01:27.347Z,38.40
2023-03-03T00:03:53.777Z,38.88
2023-03-03T00:06:20.542Z,39.13
2023-03-03T00:08:46.708Z,36.78
2023-03-03T00:11:13.368Z,39.45
2023-03-03T00:13:54.650Z,34.35
2023-03-03T00:16:28.081Z,37.00
2023-03-03T00:18:55.048Z,36.30
2023-03-03T00:21:28.498Z,34.78
2023-03-03T00:24:17.820Z,34.90
2023-03-03T00:26:46.360Z,35.60
2023-03-03T00:29:45.086Z,34.58
2023-03-03T00:32:14.024Z,35.97
2023-03-03T00:34:41.832Z,34.22
2023-03-03T00:37:27.369Z,34.85
2023-03-03T00:39:57.943Z,36.72
2023-03-03T00:42:23.990Z,34.63
2023-03-03T00:44:59.554Z,36.42
2023-03-03T00:49:53.623Z,35.80
2023-03-03T00:52:21.042Z,35.97
2023-03-03T00:54:47.156Z,38.20
2023-03-03T00:57:13.061Z,36.10
2023-03-03T00:59:39.077Z,33.90
2023-03-03T01:02:05.123Z,35.17
2023-03-03T01:04:31.169Z,35.17
2023-03-03T01:06:57.111Z,34.17
2023-03-03T01:09:23.032Z,31.92
2023-03-03T01:11:49.806Z,34.78
2023-03-03T01:14:15.816Z,31.38
2023-03-03T01:16:41.701Z,31.88
2023-03-03T01:19:08.132Z,33.42
2023-03-03T01:21:33.978Z,31.88
2023-03-03T01:23:59.905Z,33.35
2023-03-03T01:26:26.873Z,35.92
2023-03-03T01:28:52.667Z,34.20
2023-03-03T01:31:18.604Z,34.75
2023-03-03T01:33:44.414Z,34.88
2023-03-03T01:36:10.230Z,34.80
2023-03-03T01:38:37.049Z,34.50
2023-03-03T01:41:03.380Z,34.15
2023-03-03T01:43:30.815Z,34.00
2023-03-03T01:45:56.556Z,35.78
2023-03-03T01:48:32.107Z,35.63
2023-03-03T01:53:41.321Z,32.47
2023-03-03T01:56:08.337Z,33.75
2023-03-03T01:58:39.146Z,36.38
2023-03-03T02:01:13.923Z,39.17
2023-03-03T02:03:41.098Z,31.67
2023-03-03T02:06:12.603Z,35.65
2023-03-03T02:09:05.595Z,32.10
2023-03-03T02:11:35.007Z,33.78
2023-03-03T02:14:00.842Z,31.77
2023-03-03T02:16:26.903Z,33.10
2023-03-03T02:18:52.912Z,31.42
2023-03-03T02:21:21.458Z,32.15
2023-03-03T02:23:55.030Z,29.13
2023-03-03T02:26:22.190Z,31.10
2023-03-03T02:28:48.425Z,30.13
2023-03-03T02:31:17.728Z,30.70
2023-03-03T02:33:46.517Z,29.17
2023-03-03T02:36:27.845Z,31.38
2023-03-03T02:39:08.713Z,30.80
2023-03-03T02:41:50.657Z,29.15
2023-03-03T02:44:21.978Z,29.48
2023-03-03T02:46:49.387Z,31.95
2023-03-03T02:49:18.481Z,30.05
2023-03-03T02:51:44.537Z,31.10
2023-03-03T02:54:12.188Z,29.48
2023-03-03T02:56:38.257Z,30.40
2023-03-03T02:59:05.011Z,30.67
2023-03-03T03:01:36.197Z,30.05
2023-03-03T03:04:07.710Z,29.38
2023-03-03T03:06:34.764Z,29.38
2023-03-03T03:09:00.522Z,29.02
2023-03-03T03:11:26.675Z,27.70
2023-03-03T03:13:52.477Z,30.42
2023-03-03T03:16:18.850Z,29.15
2023-03-03T03:18:44.812Z,30.42
2023-03-03T03:21:12.169Z,29.05
2023-03-03T03:23:39.200Z,30.38
2023-03-03T03:26:06.356Z,28.90
2023-03-03T03:28:32.621Z,26.80
2023-03-03T03:30:58.682Z,28.92
2023-03-03T03:33:24.883Z,30.02
2023-03-03T03:35:51.038Z,27.17
2023-03-03T03:38:17.036Z,28.15
2023-03-03T03:40:43.501Z,29.38
2023-03-03T03:43:09.346Z,28.70
2023-03-03T03:45:35.136Z,29.13
2023-03-03T03:48:00.989Z,29.63
2023-03-03T03:50:26.838Z,32.40
2023-03-03T03:52:52.629Z,29.70
2023-03-03T03:55:18.476Z,30.70
2023-03-03T03:57:45.289Z,30.80
2023-03-03T04:00:11.508Z,30.58
2023-03-03T04:02:37.653Z,29.42
2023-03-03T04:05:03.887Z,32.42
2023-03-03T04:07:29.742Z,29.85
2023-03-03T04:09:55.614Z,28.90
2023-03-03T04:12:21.644Z,26.83
2023-03-03T04:14:47.446Z,26.50
2023-03-03T04:17:22.078Z,28.48
2023-03-03T04:19:47.896Z,29.33
2023-03-03T04:22:14.403Z,29.42
2023-03-03T04:24:40.763Z,27.00
2023-03-03T04:27:08.727Z,28.73
2023-03-03T04:29:35.017Z,29.23
2023-03-03T04:32:01.087Z,28.67
2023-03-03T04:34:26.953Z,25.73
2023-03-03T04:36:52.951Z,23.50
2023-03-03T04:39:18.831Z,25.92
2023-03-03T04:41:44.600Z,26.90
2023-03-03T04:44:10.370Z,24.75
2023-03-03T04:46:36.265Z,24.88
2023-03-03T04:49:03.405Z,25.67
2023-03-03T04:51:29.370Z,23.30
2023-03-03T04:53:55.182Z,23.65
2023-03-03T04:56:20.941Z,24.95
2023-03-03T04:58:46.707Z,23.73
2023-03-03T05:01:13.955Z,23.27
2023-03-03T05:03:40.288Z,23.90
2023-03-03T05:06:06.978Z,22.83
2023-03-03T05:08:32.787Z,23.10
2023-03-03T05:11:01.834Z,25.40
2023-03-03T05:13:28.127Z,23.88
2023-03-03T05:15:55.214Z,22.52
2023-03-03T05:18:25.535Z,22.50
2023-03-03T05:20:51.631Z,24.90
2023-03-03T05:23:18.084Z,25.55
2023-03-03T05:25:46.044Z,23.63
2023-03-03T05:28:11.884Z,24.20
2023-03-03T05:30:37.874Z,25.65
2023-03-03T05:33:12.071Z,24.52
2023-03-03T05:35:37.905Z,22.48
2023-03-03T05:38:05.450Z,24.38
2023-03-03T05:40:31.401Z,25.92
2023-03-03T05:42:57.602Z,25.25
2023-03-03T05:45:23.867Z,23.90
2023-03-03T05:47:51.089Z,23.77
2023-03-03T05:50:18.288Z,23.15
2023-03-03T05:52:46.704Z,21.67
2023-03-03T05:55:12.535Z,21.42
2023-03-03T05:57:38.575Z,20.55
2023-03-03T06:00:06.280Z,22.02
2023-03-03T06:02:32.134Z,20.33
2023-03-03T06:04:58.640Z,20.35
2023-03-03T06:07:24.412Z,18.20
2023-03-03T06:09:50.198Z,20.08
2023-03-03T06:12:16.422Z,20.20
2023-03-03T06:14:42.215Z,21.15
2023-03-03T06:17:08.061Z,20.98
2023-03-03T06:19:33.909Z,22.25
2023-03-03T06:22:00.864Z,22.83
2023-03-03T06:24:29.593Z,21.77
2023-03-03T06:26:56.736Z,20.60
2023-03-03T06:29:22.618Z,20.13
2023-03-03T06:31:48.455Z,20.00
2023-03-03T06:34:14.390Z,19.00
2023-03-03T06:36:40.196Z,20.45
2023-03-03T06:39:05.997Z,21.27
2023-03-03T06:41:31.921Z,20.58
2023-03-03T06:43:59.512Z,21.25
2023-03-03T06:46:26.458Z,21.55
2023-03-03T06:48:52.976Z,20.23
2023-03-03T06:51:43.230Z,19.83
2023-03-03T06:54:17.853Z,19.63
2023-03-03T06:56:45.061Z,20.43
2023-03-03T06:59:14.232Z,20.58
2023-03-03T07:01:41.334Z,19.83
2023-03-03T07:04:15.681Z,18.58
2023-03-03T07:06:41.502Z,19.13
2023-03-03T07:09:33.694Z,19.23
2023-03-03T07:12:10.778Z,19.65
2023-03-03T07:14:50.058Z,18.55
2023-03-03T07:17:22.777Z,18.98
2023-03-03T07:19:49.287Z,19.65
2023-03-03T07:22:17.786Z,21.42
2023-03-03T07:24:52.500Z,20.70
2023-03-03T07:27:18.634Z,21.13
2023-03-03T07:29:48.971Z,22.92
2023-03-03T07:32:50.030Z,21.67
2023-03-03T07:35:43.814Z,20.90
2023-03-03T07:38:41.501Z,22.00
2023-03-03T07:41:24.983Z,21.85
2023-03-03T07:43:56.448Z,21.65
2023-03-03T07:46:35.793Z,21.85
2023-03-03T07:49:21.109Z,23.45
2023-03-03T07:51:47.145Z,23.35
2023-03-03T07:54:31.211Z,22.65
2023-03-03T07:57:26.263Z,23.23
2023-03-03T08:00:14.308Z,22.10
2023-03-03T08:02:40.123Z,21.60
2023-03-03T08:05:27.804Z,20.13
2023-03-03T08:08:02.064Z,20.30
2023-03-03T08:10:47.073Z,21.95
2023-03-03T08:13:16.596Z,19.80
2023-03-03T08:15:44.416Z,19.35
2023-03-03T08:18:35.158Z,19.77
2023-03-03T08:21:22.350Z,20.60
2023-03-03T08:23:52.578Z,20.58
2023-03-03T08:26:22.113Z,20.88
2023-03-03T08:28:48.607Z,20.75
2023-03-03T08:31:22.561Z,20.50
2023-03-03T08:33:53.813Z,19.92
2023-03-03T08:36:19.690Z,19.90
2023-03-03T08:38:45.606Z,17.38
2023-03-03T08:41:11.535Z,19.00
2023-03-03T08:43:37.375Z,17.38
2023-03-03T08:46:05.904Z,17.23
2023-03-03T08:48:33.035Z,17.35
2023-03-03T08:50:59.830Z,17.45
2023-03-03T08:53:27.408Z,18.00
2023-03-03T08:55:53.235Z,16.98
2023-03-03T08:58:22.357Z,19.13
2023-03-03T09:00:52.183Z,18.90
2023-03-03T09:03:18.180Z,19.35
2023-03-03T09:05:44.980Z,18.17
2023-03-03T09:08:11.396Z,17.25
2023-03-03T09:10:37.416Z,15.75
2023-03-03T09:13:11.648Z,16.63
2023-03-03T09:15:38.048Z,16.50
2023-03-03T09:18:24.424Z,17.25
2023-03-03T09:20:52.761Z,17.55
2023-03-03T09:23:27.044Z,16.15
2023-03-03T09:25:53.267Z,16.30
2023-03-03T09:28:25.294Z,16.50
2023-03-03T09:30:53.420Z,17.45
2023-03-03T09:33:21.770Z,17.45
2023-03-03T09:35:51.191Z,17.85
2023-03-03T09:38:27.758Z,19.05
2023-03-03T09:40:59.683Z,17.92
2023-03-03T09:43:34.319Z,16.83
2023-03-03T09:46:23.754Z,15.93
2023-03-03T09:49:00.851Z,16.85
2023-03-03T09:51:49.872Z,16.25
2023-03-03T09:54:41.871Z,16.70
2023-03-03T09:57:29.101Z,15.40
2023-03-03T10:00:09.824Z,16.27
2023-03-03T10:03:00.142Z,14.70
2023-03-03T10:05:37.745Z,15.38
2023-03-03T10:08:27.165Z,15.30
2023-03-03T10:11:00.223Z,14.80
2023-03-03T10:13:59.612Z,13.45
2023-03-03T10:16:39.494Z,12.32
2023-03-03T10:19:34.475Z,11.43
2023-03-03T10:22:06.312Z,12.95
2023-03-03T10:25:29.138Z,13.88
2023-03-03T10:28:29.543Z,12.77
2023-03-03T10:31:28.418Z,14.73
2023-03-03T10:34:16.159Z,15.20
2023-03-03T10:37:06.637Z,13.50
2023-03-03T10:39:47.643Z,14.60
2023-03-03T10:42:35.015Z,13.93
2023-03-03T10:45:28.657Z,12.82
2023-03-03T10:48:15.140Z,12.45
2023-03-03T10:51:15.597Z,12.98
2023-03-03T10:54:08.872Z,13.00
2023-03-03T10:56:59.956Z,12.73
2023-03-03T10:59:54.408Z,15.43
2023-03-03T11:02:26.106Z,12.50
2023-03-03T11:05:09.929Z,12.52
2023-03-03T11:07:51.619Z,11.45
2023-03-03T11:10:42.042Z,13.85
2023-03-03T11:13:15.286Z,13.20
2023-03-03T11:15:59.866Z,13.02
2023-03-03T11:18:31.378Z,13.00
2023-03-03T11:21:03.901Z,13.38
2023-03-03T11:24:11.227Z,13.68
2023-03-03T11:27:00.317Z,12.65
2023-03-03T11:29:28.969Z,12.68
2023-03-03T11:32:17.300Z,13.55
2023-03-03T11:34:53.753Z,13.73
2023-03-03T11:37:39.313Z,13.68
2023-03-03T11:40:52.627Z,12.48
2023-03-03T11:43:37.480Z,13.40
2023-03-03T11:46:09.151Z,13.80
2023-03-03T11:48:48.570Z,14.30
2023-03-03T11:51:22.997Z,13.32
2023-03-03T11:54:08.689Z,13.45
2023-03-03T11:56:43.002Z,14.13
2023-03-03T11:59:46.341Z,13.55
2023-03-03T12:02:27.180Z,15.13
2023-03-03T12:05:06.148Z,15.25
2023-03-03T12:07:50.174Z,13.90
2023-03-03T12:10:44.257Z,14.75
2023-03-03T12:13:19.206Z,14.93
2023-03-03T12:16:01.142Z,14.23
2023-03-03T12:18:43.796Z,14.20
2023-03-03T12:21:23.049Z,15.18
2023-03-03T12:24:40.667Z,14.30
2023-03-03T12:27:29.484Z,15.00
2023-03-03T12:30:16.617Z,15.25
2023-03-03T12:33:20.165Z,15.50
2023-03-03T12:35:58.705Z,15.23
2023-03-03T12:38:34.639Z,15.82
2023-03-03T12:41:20.274Z,16.25
2023-03-03T12:43:52.206Z,16.95
2023-03-03T12:46:33.379Z,15.90
2023-03-03T12:48:59.193Z,16.65
2023-03-03T12:52:04.451Z,23.20
2023-03-03T12:54:42.388Z,16.90
2023-03-03T12:57:26.297Z,16.83
2023-03-03T13:00:01.938Z,18.17
2023-03-03T13:05:34.337Z,15.13
2023-03-03T13:08:09.033Z,14.65
2023-03-03T13:10:41.189Z,11.40
2023-03-03T13:13:18.418Z,15.15
2023-03-03T13:16:03.077Z,12.45
2023-03-03T13:18:52.982Z,11.30
2023-03-03T13:21:22.608Z,15.48
2023-03-03T13:23:53.136Z,20.30
2023-03-03T13:26:21.851Z,13.95
2023-03-03T13:28:59.526Z,12.70
2023-03-03T13:31:54.723Z,12.88
2023-03-03T13:34:33.181Z,13.70
2023-03-03T13:37:07.648Z,14.20
2023-03-03T13:39:39.334Z,13.88
2023-03-03T13:42:12.780Z,14.85
2023-03-03T13:44:42.564Z,14.00
2023-03-03T13:47:33.083Z,11.38
2023-03-03T13:50:43.514Z,10.60
2023-03-03T13:53:44.708Z,11.02
2023-03-03T13:56:15.962Z,13.77
2023-03-03T13:58:47.553Z,13.70
2023-03-03T14:02:06.041Z,15.38
2023-03-03T14:05:00.756Z,15.30
2023-03-03T14:07:29.914Z,16.65
2023-03-03T14:10:05.719Z,15.05
2023-03-03T14:13:01.513Z,15.55
2023-03-03T14:15:30.945Z,14.45
2023-03-03T14:18:06.188Z,12.63
2023-03-03T14:20:38.997Z,12.82
2023-03-03T14:23:24.373Z,15.30
2023-03-03T14:25:50.147Z,14.43
2023-03-03T14:28:18.899Z,15.23
2023-03-03T14:30:44.745Z,14.02
2023-03-03T14:33:10.519Z,12.55
2023-03-03T14:35:38.455Z,14.90
2023-03-03T14:38:14.944Z,15.90
2023-03-03T14:40:44.793Z,15.02
2023-03-03T14:43:38.368Z,14.82
2023-03-03T14:46:28.535Z,14.65
2023-03-03T14:48:56.909Z,16.33
2023-03-03T14:51:28.271Z,15.98
2023-03-03T14:53:56.094Z,16.00
2023-03-03T14:56:24.124Z,15.40
2023-03-03T14:59:18.166Z,14.85
2023-03-03T15:01:44.629Z,14.73
2023-03-03T15:04:25.492Z,14.57
2023-03-03T15:06:53.643Z,14.95
2023-03-03T15:09:44.809Z,14.40
2023-03-03T15:12:21.905Z,16.58
2023-03-03T15:15:01.494Z,16.98
2023-03-03T15:17:34.897Z,16.48
2023-03-03T15:20:19.361Z,14.93
2023-03-03T15:22:55.184Z,14.57
2023-03-03T15:25:42.909Z,15.55
2023-03-03T15:28:21.852Z,14.52
2023-03-03T15:30:58.244Z,14.73
2023-03-03T15:33:42.264Z,14.60
2023-03-03T15:36:27.331Z,15.35
2023-03-03T15:39:20.520Z,14.75
2023-03-03T15:41:55.295Z,14.38
2023-03-03T15:44:25.739Z,15.90
2023-03-03T15:46:51.503Z,16.35
2023-03-03T15:49:41.250Z,16.92
2023-03-03T15:52:22.015Z,19.63
2023-03-03T15:54:56.593Z,26.30
2023-03-03T15:57:41.517Z,20.25
2023-03-03T16:00:13.182Z,22.35
2023-03-03T16:03:01.891Z,21.52
2023-03-03T16:05:35.342Z,14.38
2023-03-03T16:08:21.924Z,15.80
2023-03-03T16:11:02.104Z,14.38
2023-03-03T16:13:36.772Z,14.70
2023-03-03T16:16:11.632Z,11.30
2023-03-03T16:18:58.439Z,14.50
2023-03-03T16:22:01.382Z,13.52
2023-03-03T16:25:15.152Z,15.15
2023-03-03T16:27:43.960Z,15.48
2023-03-03T16:30:18.604Z,15.15
2023-03-03T16:32:49.829Z,15.07
2023-03-03T16:35:32.837Z,13.57
2023-03-03T16:38:04.080Z,15.48
2023-03-03T16:40:42.179Z,14.60
2023-03-03T16:43:29.091Z,14.23
2023-03-03T16:46:17.419Z,16.27
2023-03-03T16:49:12.239Z,15.30
2023-03-03T16:51:45.806Z,15.23
2023-03-03T16:54:25.098Z,17.40
2023-03-03T16:57:52.424Z,15.25
2023-03-03T17:00:21.773Z,15.63
2023-03-03T17:03:02.920Z,16.63
2023-03-03T17:05:41.749Z,22.30
2023-03-03T17:08:16.381Z,25.73
2023-03-03T17:11:06.653Z,33.35
2023-03-03T17:13:52.160Z,30.48
2023-03-03T17:16:18.136Z,35.08
2023-03-03T17:19:04.141Z,35.28
2023-03-03T17:24:22.750Z,21.63
2023-03-03T17:26:54.652Z,25.17
2023-03-03T17:29:29.562Z,27.10
2023-03-03T17:32:25.079Z,17.33
2023-03-03T17:35:14.071Z,22.63
2023-03-03T17:38:04.137Z,23.05
2023-03-03T17:40:47.987Z,22.05
2023-03-03T17:43:46.864Z,25.27
2023-03-03T17:46:33.888Z,25.10
2023-03-03T17:49:14.992Z,22.63
2023-03-03T17:51:59.347Z,23.45
2023-03-03T17:54:58.291Z,27.45
2023-03-03T17:57:24.071Z,30.23
2023-03-03T18:00:23.177Z,33.00
2023-03-03T18:03:05.085Z,31.45
2023-03-03T18:05:35.913Z,31.17
2023-03-03T18:08:23.978Z,30.90
2023-03-03T18:11:22.092Z,28.40
2023-03-03T18:14:18.430Z,23.13
2023-03-03T18:17:09.108Z,23.23
2023-03-03T18:19:45.745Z,22.95
2023-03-03T18:22:19.775Z,19.88
2023-03-03T18:24:48.500Z,24.92
2023-03-03T18:27:23.413Z,21.80
2023-03-03T18:30:24.057Z,22.15
2023-03-03T18:32:55.811Z,24.92
2023-03-03T18:35:27.039Z,19.88
2023-03-03T18:37:54.475Z,21.08
2023-03-03T18:40:25.943Z,21.02
2023-03-03T18:42:53.294Z,21.08
2023-03-03T18:45:19.307Z,22.52
2023-03-03T18:48:00.413Z,22.98
2023-03-03T18:50:42.376Z,20.67
2023-03-03T18:53:20.455Z,20.73
2023-03-03T18:55:47.576Z,21.15
2023-03-03T18:58:13.336Z,19.98
2023-03-03T19:00:51.071Z,19.52
2023-03-03T19:03:32.148Z,22.77
2023-03-03T19:05:59.453Z,21.15
2023-03-03T19:08:30.119Z,21.00
2023-03-03T19:10:58.367Z,21.83
2023-03-03T19:13:46.190Z,21.67
2023-03-03T19:16:24.014Z,22.88
2023-03-03T19:18:49.917Z,22.50
2023-03-03T19:21:32.140Z,22.63
2023-03-03T19:24:17.768Z,22.08
2023-03-03T19:27:25.169Z,24.50
2023-03-03T19:30:05.443Z,22.48
2023-03-03T19:32:47.673Z,22.73
2023-03-03T19:35:45.321Z,22.85
2023-03-03T19:38:36.594Z,22.13
2023-03-03T19:41:26.943Z,23.52
2023-03-03T19:44:14.534Z,23.48
2023-03-03T19:47:03.965Z,27.80
2023-03-03T19:49:48.624Z,28.50
2023-03-03T19:52:54.805Z,29.77
2023-03-03T19:55:44.442Z,27.38
2023-03-03T19:58:10.786Z,32.33
2023-03-03T20:00:45.123Z,29.88
2023-03-03T20:03:26.920Z,26.90
2023-03-03T20:06:01.028Z,24.58
2023-03-03T20:08:35.321Z,26.75
2023-03-03T20:11:24.408Z,24.52
2023-03-03T20:14:01.133Z,25.25
2023-03-03T20:16:49.745Z,25.55
2023-03-03T20:20:00.205Z,25.65
2023-03-03T20:22:55.986Z,23.80
2023-03-03T20:25:36.777Z,25.90
2023-03-03T20:28:47.663Z,24.50
2023-03-03T20:31:16.260Z,25.05
2023-03-03T20:33:49.970Z,25.40
2023-03-03T20:36:28.561Z,25.45
2023-03-03T20:39:00.217Z,24.17
2023-03-03T20:41:37.918Z,25.48
2023-03-03T20:44:19.286Z,24.48
2023-03-03T20:47:12.709Z,22.30
2023-03-03T20:50:15.914Z,24.33
2023-03-03T20:53:15.901Z,24.73
2023-03-03T20:55:49.842Z,24.95
2023-03-03T20:58:33.918Z,22.75
2023-03-03T21:01:15.341Z,24.75
2023-03-03T21:03:44.191Z,22.77
2023-03-03T21:06:17.201Z,22.85
2023-03-03T21:08:55.513Z,20.17
2023-03-03T21:11:30.288Z,21.67
2023-03-03T21:13:57.677Z,21.45
2023-03-03T21:16:23.442Z,22.35
2023-03-03T21:18:59.075Z,22.70
2023-03-03T21:21:31.259Z,23.35
2023-03-03T21:23:58.477Z,21.00
2023-03-03T21:27:00.561Z,22.83
2023-03-03T21:29:32.517Z,22.42
2023-03-03T21:32:05.795Z,21.65
2023-03-03T21:34:35.301Z,21.38
2023-03-03T21:37:05.989Z,21.40
2023-03-03T21:39:35.161Z,21.38
2023-03-03T21:42:04.388Z,22.75
2023-03-03T21:44:33.557Z,21.33
2023-03-03T21:46:59.723Z,23.38
2023-03-03T21:49:25.753Z,21.25
2023-03-03T21:51:51.568Z,19.08
2023-03-03T21:54:17.418Z,17.67
2023-03-03T21:56:43.267Z,17.88
2023-03-03T21:59:09.530Z,16.73
2023-03-03T22:01:37.808Z,16.85
2023-03-03T22:04:05.019Z,15.55
2023-03-03T22:06:30.859Z,16.08
2023-03-03T22:08:56.707Z,17.05
2023-03-03T22:11:22.577Z,17.50
2023-03-03T22:13:48.437Z,16.48
2023-03-03T22:16:14.311Z,16.73
2023-03-03T22:18:40.288Z,15.60
2023-03-03T22:21:06.175Z,16.17
2023-03-03T22:23:32.624Z,17.08
2023-03-03T22:25:59.103Z,17.95
2023-03-03T22:28:24.977Z,18.75
2023-03-03T22:30:50.822Z,18.50
2023-03-03T22:33:16.661Z,19.35
2023-03-03T22:35:42.568Z,19.02
2023-03-03T22:38:08.373Z,18.20
2023-03-03T22:40:34.193Z,18.75
2023-03-03T22:43:05.670Z,17.27
2023-03-03T22:45:32.579Z,17.25
2023-03-03T22:47:58.626Z,14.35
2023-03-03T22:50:24.772Z,13.88
2023-03-03T22:52:50.741Z,15.10
2023-03-03T22:55:16.931Z,15.57
2023-03-03T22:57:42.907Z,13.30
2023-03-03T23:00:13.785Z,14.32
2023-03-03T23:02:40.074Z,14.80
2023-03-03T23:05:09.304Z,15.32
2023-03-03T23:07:35.630Z,14.88
2023-03-03T23:10:01.868Z,14.27
2023-03-03T23:12:27.661Z,12.95
2023-03-03T23:14:53.501Z,12.60
2023-03-03T23:17:19.299Z,13.30
2023-03-03T23:19:45.730Z,12.15
2023-03-03T23:22:12.917Z,12.07
2023-03-03T23:24:40.076Z,11.43
2023-03-03T23:27:06.752Z,12.10
2023-03-03T23:29:32.607Z,11.85
2023-03-03T23:31:58.591Z,10.30
2023-03-03T23:34:24.431Z,11.10
2023-03-03T23:36:50.246Z,10.77
2023-03-03T23:39:16.704Z,9.93
2023-03-03T23:41:44.319Z,10.80
2023-03-03T23:44:11.265Z,10.68
2023-03-03T23:46:39.107Z,9.77
2023-03-03T23:49:06.244Z,10.13
2023-03-03T23:51:33.044Z,9.18
2023-03-03T23:53:59.627Z,9.25
2023-03-03T23:56:25.811Z,9.07
2023-03-03T23:58:51.730Z,8.73
